createdAt,value
2019-06-20T00:00:30.281Z,16.23
2019-06-20T00:01:30.267Z,16.15
2019-06-20T00:02:30.257Z,16.10
2019-06-20T00:03:30.245Z,16.05
2019-06-20T00:04:30.235Z,16.16
2019-06-20T00:05:30.242Z,16.26
2019-06-20T00:06:30.212Z,16.17
2019-06-20T00:07:30.201Z,16.16
2019-06-20T00:08:30.183Z,16.12
2019-06-20T00:09:30.174Z,16.20
2019-06-20T00:10:30.158Z,16.20
2019-06-20T00:11:30.165Z,16.24
2019-06-20T00:12:30.140Z,16.23
2019-06-20T00:13:30.135Z,16.26
2019-06-20T00:14:30.114Z,16.28
2019-06-20T00:15:30.162Z,16.20
2019-06-20T00:16:30.094Z,16.29
2019-06-20T00:17:30.091Z,16.24
2019-06-20T00:18:30.064Z,16.26
2019-06-20T00:19:30.047Z,16.21
2019-06-20T00:20:30.041Z,16.15
2019-06-20T00:21:30.036Z,16.17
2019-06-20T00:22:30.019Z,16.17
2019-06-20T00:23:30.024Z,16.23
2019-06-20T00:24:29.990Z,16.12
2019-06-20T00:25:29.976Z,16.09
2019-06-20T00:26:29.965Z,16.10
2019-06-20T00:27:29.962Z,16.09
2019-06-20T00:28:29.956Z,16.08
2019-06-20T00:29:29.949Z,16.10
2019-06-20T00:30:29.926Z,16.16
2019-06-20T00:31:29.922Z,16.21
2019-06-20T00:32:29.895Z,16.26
2019-06-20T00:33:29.881Z,16.29
2019-06-20T00:34:29.873Z,16.24
2019-06-20T00:35:29.883Z,16.29
2019-06-20T00:36:29.851Z,16.33
2019-06-20T00:37:29.843Z,16.26
2019-06-20T00:38:29.829Z,16.39
2019-06-20T00:39:29.809Z,16.36
2019-06-20T00:40:29.804Z,16.35
2019-06-20T00:41:29.805Z,16.32
2019-06-20T00:42:29.783Z,16.36
2019-06-20T00:43:29.771Z,16.41
2019-06-20T00:44:29.749Z,16.35
2019-06-20T00:45:29.741Z,16.43
2019-06-20T00:46:29.738Z,16.31
2019-06-20T00:47:29.752Z,16.35
2019-06-20T00:48:29.711Z,16.43
2019-06-20T00:49:29.691Z,16.42
2019-06-20T00:50:29.683Z,16.50
2019-06-20T00:51:29.670Z,16.53
2019-06-20T00:52:29.659Z,16.56
2019-06-20T00:53:29.670Z,16.49
2019-06-20T00:54:29.631Z,16.53
2019-06-20T00:55:29.639Z,16.53
2019-06-20T00:56:29.617Z,16.49
2019-06-20T00:57:29.598Z,16.49
2019-06-20T00:58:29.588Z,16.42
2019-06-20T00:59:29.589Z,16.38
2019-06-20T01:00:29.560Z,16.33
2019-06-20T01:01:29.554Z,16.36
2019-06-20T01:02:29.536Z,16.46
2019-06-20T01:03:29.529Z,16.36
2019-06-20T01:04:29.515Z,16.38
2019-06-20T01:05:29.524Z,16.35
2019-06-20T01:06:29.492Z,16.42
2019-06-20T01:07:29.478Z,16.43
2019-06-20T01:08:29.471Z,16.43
2019-06-20T01:09:29.456Z,16.42
2019-06-20T01:10:29.441Z,16.46
2019-06-20T01:11:29.460Z,16.56
2019-06-20T01:12:29.417Z,16.57
2019-06-20T01:13:33.739Z,16.58
2019-06-20T01:14:29.397Z,16.57
2019-06-20T01:15:29.390Z,16.58
2019-06-20T01:16:29.372Z,16.61
2019-06-20T01:17:29.377Z,16.65
2019-06-20T01:18:29.349Z,16.64
2019-06-20T01:19:29.341Z,16.64
2019-06-20T01:20:29.338Z,16.66
2019-06-20T01:21:29.345Z,16.75
2019-06-20T01:22:29.303Z,16.72
2019-06-20T01:23:29.307Z,16.75
2019-06-20T01:24:29.284Z,16.72
2019-06-20T01:25:29.265Z,16.76
2019-06-20T01:26:29.254Z,16.78
2019-06-20T01:27:29.248Z,16.76
2019-06-20T01:28:29.228Z,16.76
2019-06-20T01:29:29.256Z,16.83
2019-06-20T01:30:29.214Z,16.78
2019-06-20T01:31:29.200Z,16.79
2019-06-20T01:32:29.181Z,16.84
2019-06-20T01:33:29.170Z,16.89
2019-06-20T01:34:29.168Z,16.86
2019-06-20T01:35:29.161Z,16.89
2019-06-20T01:36:29.139Z,16.84
2019-06-20T01:37:29.127Z,16.81
2019-06-20T01:38:29.111Z,16.83
2019-06-20T01:39:29.110Z,16.90
2019-06-20T01:40:29.084Z,16.90
2019-06-20T01:41:29.090Z,16.91
2019-06-20T01:42:29.070Z,16.93
2019-06-20T01:43:29.062Z,16.93
2019-06-20T01:44:29.046Z,16.93
2019-06-20T01:45:29.048Z,16.89
2019-06-20T01:46:29.012Z,16.91
2019-06-20T01:47:29.035Z,16.96
2019-06-20T01:48:28.990Z,16.89
2019-06-20T01:49:28.984Z,16.89
2019-06-20T01:50:28.964Z,16.97
2019-06-20T01:51:28.952Z,16.89
2019-06-20T01:52:28.945Z,16.91
2019-06-20T01:53:28.950Z,16.94
2019-06-20T01:54:28.928Z,16.97
2019-06-20T01:55:28.904Z,17.01
2019-06-20T01:56:28.904Z,17.02
2019-06-20T01:57:28.883Z,16.89
2019-06-20T01:58:28.868Z,16.96
2019-06-20T01:59:28.875Z,16.87
2019-06-20T02:00:28.844Z,16.94
2019-06-20T02:01:28.837Z,16.91
2019-06-20T02:02:28.822Z,16.96
2019-06-20T02:03:28.813Z,16.93
2019-06-20T02:04:28.797Z,16.89
2019-06-20T02:05:28.806Z,16.91
2019-06-20T02:06:28.775Z,16.86
2019-06-20T02:07:28.763Z,16.87
2019-06-20T02:08:28.779Z,16.90
2019-06-20T02:09:28.740Z,16.90
2019-06-20T02:10:28.730Z,16.89
2019-06-20T02:11:28.736Z,16.89
2019-06-20T02:12:28.743Z,16.91
2019-06-20T02:13:28.691Z,16.93
2019-06-20T02:14:28.696Z,16.94
2019-06-20T02:15:28.672Z,16.89
2019-06-20T02:16:28.655Z,16.93
2019-06-20T02:17:28.662Z,16.87
2019-06-20T02:18:28.660Z,16.87
2019-06-20T02:19:28.623Z,16.89
2019-06-20T02:20:28.611Z,16.90
2019-06-20T02:21:28.596Z,16.94
2019-06-20T02:22:28.601Z,16.91
2019-06-20T02:23:28.588Z,16.90
2019-06-20T02:24:28.562Z,16.79
2019-06-20T02:25:28.550Z,16.79
2019-06-20T02:26:28.540Z,16.84
2019-06-20T02:27:28.530Z,16.87
2019-06-20T02:28:28.521Z,16.84
2019-06-20T02:29:28.572Z,16.90
2019-06-20T02:30:28.498Z,16.91
2019-06-20T02:31:28.487Z,16.91
2019-06-20T02:32:28.477Z,16.89
2019-06-20T02:33:28.469Z,16.81
2019-06-20T02:34:28.444Z,16.81
2019-06-20T02:35:28.455Z,16.74
2019-06-20T02:36:28.425Z,16.74
2019-06-20T02:37:28.410Z,16.75
2019-06-20T02:38:28.400Z,16.68
2019-06-20T02:39:28.384Z,16.66
2019-06-20T02:40:28.373Z,16.60
2019-06-20T02:41:28.379Z,16.68
2019-06-20T02:42:28.355Z,16.50
2019-06-20T02:43:28.342Z,16.54
2019-06-20T02:44:30.701Z,16.58
2019-06-20T02:45:28.322Z,16.66
2019-06-20T02:46:28.371Z,16.64
2019-06-20T02:47:28.324Z,16.61
2019-06-20T02:48:28.282Z,16.75
2019-06-20T02:49:28.269Z,16.64
2019-06-20T02:50:28.255Z,16.66
2019-06-20T02:51:28.245Z,16.64
2019-06-20T02:52:28.236Z,16.56
2019-06-20T02:53:28.244Z,16.50
2019-06-20T02:54:28.210Z,16.53
2019-06-20T02:55:28.196Z,16.43
2019-06-20T02:56:28.185Z,16.42
2019-06-20T02:57:28.190Z,16.38
2019-06-20T02:58:28.168Z,16.42
2019-06-20T02:59:28.173Z,16.46
2019-06-20T03:00:28.140Z,16.50
2019-06-20T03:01:28.150Z,16.47
2019-06-20T03:02:28.128Z,16.50
2019-06-20T03:03:28.105Z,16.49
2019-06-20T03:04:28.093Z,16.47
2019-06-20T03:05:28.096Z,16.54
2019-06-20T03:06:28.064Z,16.56
2019-06-20T03:07:28.058Z,16.57
2019-06-20T03:08:28.043Z,16.54
2019-06-20T03:09:28.033Z,16.61
2019-06-20T03:10:28.022Z,16.60
2019-06-20T03:11:28.036Z,16.54
2019-06-20T03:12:27.995Z,16.66
2019-06-20T03:13:27.986Z,16.64
2019-06-20T03:14:27.973Z,16.60
2019-06-20T03:15:27.967Z,16.64
2019-06-20T03:16:27.947Z,16.71
2019-06-20T03:17:27.955Z,16.68
2019-06-20T03:18:27.933Z,16.74
2019-06-20T03:19:27.917Z,16.65
2019-06-20T03:20:27.907Z,16.71
2019-06-20T03:21:27.903Z,16.71
2019-06-20T03:22:27.883Z,16.68
2019-06-20T03:23:27.900Z,16.74
2019-06-20T03:24:27.860Z,16.68
2019-06-20T03:25:27.860Z,16.71
2019-06-20T03:26:27.843Z,16.75
2019-06-20T03:27:27.826Z,16.71
2019-06-20T03:28:27.813Z,16.69
2019-06-20T03:29:27.816Z,16.76
2019-06-20T03:30:27.824Z,16.69
2019-06-20T03:31:27.785Z,16.72
2019-06-20T03:32:27.778Z,16.72
2019-06-20T03:33:27.756Z,16.66
2019-06-20T03:34:27.741Z,16.69
2019-06-20T03:35:27.751Z,16.71
2019-06-20T03:36:27.735Z,16.74
2019-06-20T03:37:27.713Z,16.65
2019-06-20T03:38:27.695Z,16.75
2019-06-20T03:39:27.684Z,16.61
2019-06-20T03:40:27.677Z,16.66
2019-06-20T03:41:27.689Z,16.71
2019-06-20T03:42:27.650Z,16.64
2019-06-20T03:43:27.634Z,16.69
2019-06-20T03:44:27.631Z,16.68
2019-06-20T03:45:27.615Z,16.56
2019-06-20T03:46:27.605Z,16.58
2019-06-20T03:47:27.627Z,16.66
2019-06-20T03:48:27.581Z,16.60
2019-06-20T03:49:27.581Z,16.66
2019-06-20T03:50:27.556Z,16.69
2019-06-20T03:51:27.548Z,16.65
2019-06-20T03:52:27.530Z,16.68
2019-06-20T03:53:27.548Z,16.71
2019-06-20T03:54:27.526Z,16.66
2019-06-20T03:55:27.497Z,16.61
2019-06-20T03:56:27.500Z,16.68
2019-06-20T03:57:27.470Z,16.69
2019-06-20T03:58:27.473Z,16.76
2019-06-20T03:59:27.491Z,16.69
2019-06-20T04:00:27.441Z,16.66
2019-06-20T04:01:27.437Z,16.68
2019-06-20T04:02:27.475Z,16.69
2019-06-20T04:03:27.400Z,16.69
2019-06-20T04:04:27.391Z,16.71
2019-06-20T04:05:27.401Z,16.75
2019-06-20T04:06:27.373Z,16.78
2019-06-20T04:07:27.379Z,16.74
2019-06-20T04:08:27.343Z,16.74
2019-06-20T04:09:27.333Z,16.75
2019-06-20T04:10:27.331Z,16.74
2019-06-20T04:11:27.332Z,16.78
2019-06-20T04:12:27.306Z,16.76
2019-06-20T04:13:27.288Z,16.74
2019-06-20T04:14:27.304Z,16.75
2019-06-20T04:15:27.265Z,16.76
2019-06-20T04:16:27.252Z,16.75
2019-06-20T04:17:27.258Z,16.76
2019-06-20T04:18:27.230Z,16.83
2019-06-20T04:19:27.234Z,16.78
2019-06-20T04:20:27.207Z,16.78
2019-06-20T04:21:27.193Z,16.86
2019-06-20T04:22:27.187Z,16.86
2019-06-20T04:23:27.188Z,16.84
2019-06-20T04:24:28.112Z,16.83
2019-06-20T04:25:27.161Z,16.79
2019-06-20T04:26:27.142Z,16.84
2019-06-20T04:27:27.128Z,16.90
2019-06-20T04:28:27.114Z,16.90
2019-06-20T04:29:27.122Z,16.89
2019-06-20T04:30:27.094Z,16.90
2019-06-20T04:31:27.079Z,16.89
2019-06-20T04:32:27.064Z,16.87
2019-06-20T04:33:27.054Z,16.91
2019-06-20T04:34:27.046Z,16.94
2019-06-20T04:35:27.059Z,16.94
2019-06-20T04:36:27.024Z,16.87
2019-06-20T04:37:27.009Z,16.99
2019-06-20T04:38:27.006Z,17.01
2019-06-20T04:39:26.988Z,16.90
2019-06-20T04:40:26.987Z,16.99
2019-06-20T04:41:26.983Z,17.04
2019-06-20T04:42:26.955Z,17.09
2019-06-20T04:43:26.949Z,17.06
2019-06-20T04:44:26.928Z,17.14
2019-06-20T04:45:34.988Z,17.23
2019-06-20T04:46:27.928Z,17.24
2019-06-20T04:47:26.906Z,17.15
2019-06-20T04:48:26.886Z,17.22
2019-06-20T04:49:26.893Z,17.24
2019-06-20T04:50:26.860Z,17.22
2019-06-20T04:51:26.857Z,17.23
2019-06-20T04:52:26.867Z,17.26
2019-06-20T04:53:26.824Z,17.22
2019-06-20T04:54:26.816Z,17.27
2019-06-20T04:55:26.809Z,17.20
2019-06-20T04:56:26.792Z,17.20
2019-06-20T04:57:26.786Z,17.19
2019-06-20T04:58:26.789Z,17.14
2019-06-20T04:59:26.760Z,17.22
2019-06-20T05:00:26.760Z,17.20
2019-06-20T05:01:26.763Z,17.20
2019-06-20T05:02:26.723Z,17.26
2019-06-20T05:03:26.716Z,17.26
2019-06-20T05:04:26.721Z,17.27
2019-06-20T05:05:26.693Z,17.38
2019-06-20T05:06:26.675Z,17.44
2019-06-20T05:07:26.671Z,17.49
2019-06-20T05:08:26.657Z,17.49
2019-06-20T05:09:26.651Z,17.57
2019-06-20T05:10:26.651Z,17.49
2019-06-20T05:11:26.623Z,17.52
2019-06-20T05:12:26.613Z,17.64
2019-06-20T05:13:26.595Z,17.64
2019-06-20T05:14:26.587Z,17.65
2019-06-20T05:15:26.577Z,17.76
2019-06-20T05:16:26.588Z,17.76
2019-06-20T05:17:26.552Z,17.79
2019-06-20T05:18:26.563Z,17.79
2019-06-20T05:19:26.531Z,17.76
2019-06-20T05:20:26.518Z,17.76
2019-06-20T05:21:26.531Z,17.82
2019-06-20T05:22:26.523Z,17.82
2019-06-20T05:23:26.494Z,17.85
2019-06-20T05:24:26.475Z,17.79
2019-06-20T05:25:26.464Z,17.76
2019-06-20T05:26:26.451Z,17.83
2019-06-20T05:27:26.437Z,17.78
2019-06-20T05:28:26.445Z,17.82
2019-06-20T05:29:26.423Z,17.95
2019-06-20T05:30:26.403Z,17.89
2019-06-20T05:31:26.397Z,17.87
2019-06-20T05:32:26.384Z,17.87
2019-06-20T05:33:26.368Z,17.94
2019-06-20T05:34:26.410Z,18.01
2019-06-20T05:35:26.347Z,18.03
2019-06-20T05:36:26.338Z,18.01
2019-06-20T05:37:26.332Z,18.05
2019-06-20T05:38:26.324Z,18.04
2019-06-20T05:39:26.300Z,18.08
2019-06-20T05:40:26.319Z,18.05
2019-06-20T05:41:26.292Z,18.13
2019-06-20T05:42:26.271Z,18.05
2019-06-20T05:43:26.268Z,18.15
2019-06-20T05:44:26.249Z,18.18
2019-06-20T05:45:26.233Z,18.13
2019-06-20T05:46:26.271Z,18.11
2019-06-20T05:47:26.211Z,18.07
2019-06-20T05:48:26.203Z,18.04
2019-06-20T05:49:26.185Z,18.05
2019-06-20T05:50:26.175Z,17.90
2019-06-20T05:51:26.177Z,18.00
2019-06-20T05:52:26.187Z,17.98
2019-06-20T05:53:26.148Z,17.95
2019-06-20T05:54:26.132Z,17.90
2019-06-20T05:55:26.118Z,17.98
2019-06-20T05:56:26.130Z,17.95
2019-06-20T05:57:26.097Z,17.97
2019-06-20T05:58:26.119Z,17.98
2019-06-20T05:59:26.075Z,17.89
2019-06-20T06:00:26.078Z,17.95
2019-06-20T06:01:26.449Z,18.01
2019-06-20T06:02:26.041Z,18.04
2019-06-20T06:03:26.024Z,18.00
2019-06-20T06:04:26.399Z,18.05
2019-06-20T06:05:26.005Z,17.98
2019-06-20T06:06:25.998Z,18.07
2019-06-20T06:07:25.997Z,18.01
2019-06-20T06:08:25.978Z,18.04
2019-06-20T06:09:26.004Z,17.92
2019-06-20T06:10:25.988Z,18.03
2019-06-20T06:11:25.957Z,17.98
2019-06-20T06:12:25.929Z,17.94
2019-06-20T06:13:25.918Z,17.97
2019-06-20T06:14:25.899Z,17.94
2019-06-20T06:15:25.889Z,17.86
2019-06-20T06:16:28.327Z,17.92
2019-06-20T06:17:25.876Z,17.90
2019-06-20T06:18:25.855Z,18.01
2019-06-20T06:19:25.844Z,17.98
2019-06-20T06:20:25.867Z,18.01
2019-06-20T06:21:25.825Z,18.07
2019-06-20T06:22:25.852Z,18.03
2019-06-20T06:23:25.798Z,18.08
2019-06-20T06:24:25.845Z,18.20
2019-06-20T06:25:25.790Z,18.29
2019-06-20T06:26:25.781Z,18.34
2019-06-20T06:27:25.754Z,18.45
2019-06-20T06:28:25.799Z,18.58
2019-06-20T06:29:25.729Z,18.78
2019-06-20T06:30:25.735Z,18.99
2019-06-20T06:31:25.719Z,19.14
2019-06-20T06:32:39.193Z,19.21
2019-06-20T06:33:26.774Z,19.47
2019-06-20T06:34:25.685Z,19.62
2019-06-20T06:35:25.667Z,19.69
2019-06-20T06:36:25.660Z,20.04
2019-06-20T06:37:25.643Z,20.16
2019-06-20T06:38:25.632Z,20.39
2019-06-20T06:39:25.643Z,20.70
2019-06-20T06:40:25.619Z,21.00
2019-06-20T06:41:25.601Z,21.33
2019-06-20T06:42:25.582Z,21.95
2019-06-20T06:43:25.571Z,22.17
2019-06-20T06:44:25.563Z,22.23
2019-06-20T06:45:25.588Z,22.17
2019-06-20T06:46:25.549Z,22.48
2019-06-20T06:47:25.524Z,22.91
2019-06-20T06:48:25.514Z,23.37
2019-06-20T06:49:25.501Z,23.51
2019-06-20T06:50:25.507Z,23.25
2019-06-20T06:51:25.554Z,23.20
2019-06-20T06:52:25.502Z,23.50
2019-06-20T06:53:25.461Z,23.31
2019-06-20T06:54:25.473Z,23.62
2019-06-20T06:55:27.706Z,24.32
2019-06-20T06:56:25.438Z,24.77
2019-06-20T06:57:25.459Z,24.70
2019-06-20T06:58:25.415Z,24.81
2019-06-20T06:59:25.420Z,24.50
2019-06-20T07:00:25.388Z,23.95
2019-06-20T07:01:25.381Z,23.34
2019-06-20T07:02:26.380Z,22.62
2019-06-20T07:03:25.399Z,22.25
2019-06-20T07:04:25.352Z,21.93
2019-06-20T07:05:25.336Z,21.52
2019-06-20T07:06:25.314Z,21.33
2019-06-20T07:07:25.309Z,21.27
2019-06-20T07:08:25.308Z,21.06
2019-06-20T07:09:25.363Z,20.85
2019-06-20T07:10:25.315Z,20.62
2019-06-20T07:11:25.259Z,20.44
2019-06-20T07:12:25.246Z,20.43
2019-06-20T07:13:25.268Z,20.36
2019-06-20T07:14:25.233Z,20.39
2019-06-20T07:15:25.263Z,20.37
2019-06-20T07:16:25.222Z,20.58
2019-06-20T07:17:25.244Z,20.60
2019-06-20T07:18:25.185Z,20.52
2019-06-20T07:19:25.267Z,20.58
2019-06-20T07:20:25.163Z,20.62
2019-06-20T07:21:25.187Z,20.69
2019-06-20T07:22:25.144Z,20.90
2019-06-20T07:23:25.124Z,20.84
2019-06-20T07:24:25.119Z,20.80
2019-06-20T07:25:25.101Z,20.80
2019-06-20T07:26:25.095Z,21.24
2019-06-20T07:27:25.285Z,21.95
2019-06-20T07:28:25.082Z,22.44
2019-06-20T07:29:25.087Z,23.43
2019-06-20T07:30:25.049Z,24.16
2019-06-20T07:31:25.051Z,24.91
2019-06-20T07:32:25.046Z,25.62
2019-06-20T07:33:26.276Z,26.25
2019-06-20T07:34:25.012Z,26.99
2019-06-20T07:35:24.991Z,26.96
2019-06-20T07:36:24.987Z,27.18
2019-06-20T07:37:24.999Z,27.75
2019-06-20T07:38:24.970Z,27.93
2019-06-20T07:39:24.980Z,28.11
2019-06-20T07:40:24.942Z,28.27
2019-06-20T07:41:24.933Z,27.95
2019-06-20T07:42:24.945Z,27.67
2019-06-20T07:43:24.924Z,27.82
2019-06-20T07:44:24.900Z,28.00
2019-06-20T07:45:27.315Z,27.93
2019-06-20T07:46:24.890Z,28.15
2019-06-20T07:47:25.767Z,28.48
2019-06-20T07:48:24.869Z,28.64
2019-06-20T07:49:24.842Z,29.04
2019-06-20T07:50:24.851Z,28.82
2019-06-20T07:51:24.829Z,29.20
2019-06-20T07:52:24.811Z,29.86
2019-06-20T07:53:24.800Z,29.68
2019-06-20T07:54:24.792Z,29.27
2019-06-20T07:55:24.785Z,29.60
2019-06-20T07:56:24.882Z,29.66
2019-06-20T07:57:24.775Z,29.14
2019-06-20T07:58:24.754Z,29.14
2019-06-20T07:59:24.735Z,28.66
2019-06-20T08:00:24.738Z,28.66
2019-06-20T08:01:24.734Z,29.14
2019-06-20T08:02:24.751Z,28.45
2019-06-20T08:03:24.722Z,27.51
2019-06-20T08:04:24.688Z,27.20
2019-06-20T08:05:24.682Z,26.96
2019-06-20T08:06:24.674Z,26.47
2019-06-20T08:07:24.727Z,27.05
2019-06-20T08:08:24.694Z,26.36
2019-06-20T08:09:24.678Z,25.84
2019-06-20T08:10:24.635Z,25.54
2019-06-20T08:11:24.623Z,26.15
2019-06-20T08:12:24.658Z,27.15
2019-06-20T08:13:24.594Z,28.08
2019-06-20T08:14:24.663Z,28.59
2019-06-20T08:15:24.591Z,29.32
2019-06-20T08:16:24.594Z,28.70
2019-06-20T08:17:34.765Z,28.38
2019-06-20T08:18:25.561Z,27.52
2019-06-20T08:19:24.562Z,26.99
2019-06-20T08:20:24.579Z,27.47
2019-06-20T08:21:24.527Z,26.66
2019-06-20T08:22:24.511Z,27.18
2019-06-20T08:23:24.524Z,27.22
2019-06-20T08:24:24.488Z,27.36
2019-06-20T08:25:24.506Z,27.87
2019-06-20T08:26:24.521Z,27.95
2019-06-20T08:27:24.465Z,27.80
2019-06-20T08:28:24.455Z,27.96
2019-06-20T08:29:24.437Z,27.92
2019-06-20T08:30:24.434Z,28.63
2019-06-20T08:31:24.427Z,29.13
2019-06-20T08:32:24.478Z,29.36
2019-06-20T08:33:24.413Z,28.59
2019-06-20T08:34:24.398Z,28.49
2019-06-20T08:35:24.390Z,27.39
2019-06-20T08:36:24.384Z,26.56
2019-06-20T08:37:24.368Z,26.51
2019-06-20T08:38:24.405Z,27.22
2019-06-20T08:39:24.346Z,28.01
2019-06-20T08:40:24.355Z,28.60
2019-06-20T08:41:24.319Z,28.76
2019-06-20T08:42:24.311Z,28.62
2019-06-20T08:43:24.311Z,28.60
2019-06-20T08:44:24.347Z,28.33
2019-06-20T08:45:24.299Z,28.32
2019-06-20T08:46:24.297Z,27.80
2019-06-20T08:47:24.272Z,28.27
2019-06-20T08:48:24.269Z,28.48
2019-06-20T08:49:24.239Z,29.10
2019-06-20T08:50:24.328Z,29.39
2019-06-20T08:51:24.232Z,29.53
2019-06-20T08:52:24.216Z,29.10
2019-06-20T08:53:25.790Z,28.12
2019-06-20T08:54:24.210Z,28.39
2019-06-20T08:55:24.190Z,28.04
2019-06-20T08:56:24.212Z,28.35
2019-06-20T08:57:24.165Z,28.76
2019-06-20T08:58:24.175Z,29.14
2019-06-20T08:59:24.973Z,29.57
2019-06-20T09:00:24.810Z,29.53
2019-06-20T09:01:24.125Z,29.79
2019-06-20T09:02:24.167Z,30.15
2019-06-20T09:03:24.112Z,30.62
2019-06-20T09:04:24.119Z,30.65
2019-06-20T09:05:24.112Z,30.80
2019-06-20T09:06:24.083Z,31.17
2019-06-20T09:07:24.083Z,31.10
2019-06-20T09:08:24.095Z,31.10
2019-06-20T09:09:24.079Z,30.77
2019-06-20T09:10:24.060Z,30.80
2019-06-20T09:11:24.039Z,30.39
2019-06-20T09:12:24.043Z,30.15
2019-06-20T09:13:24.031Z,29.61
2019-06-20T09:14:24.035Z,28.41
2019-06-20T09:15:24.006Z,27.64
2019-06-20T09:16:24.841Z,27.64
2019-06-20T09:17:23.993Z,27.67
2019-06-20T09:18:23.985Z,28.05
2019-06-20T09:19:23.971Z,27.35
2019-06-20T09:20:23.984Z,26.22
2019-06-20T09:21:24.014Z,25.59
2019-06-20T09:22:23.940Z,25.25
2019-06-20T09:23:23.948Z,25.01
2019-06-20T09:24:23.920Z,25.58
2019-06-20T09:25:24.796Z,26.65
2019-06-20T09:26:23.952Z,27.73
2019-06-20T09:27:23.891Z,28.23
2019-06-20T09:28:23.927Z,29.14
2019-06-20T09:29:23.871Z,29.49
2019-06-20T09:30:23.878Z,29.76
2019-06-20T09:31:23.858Z,30.06
2019-06-20T09:32:23.898Z,30.43
2019-06-20T09:33:23.837Z,29.68
2019-06-20T09:34:23.855Z,28.89
2019-06-20T09:35:23.860Z,27.95
2019-06-20T09:36:23.824Z,27.42
2019-06-20T09:37:23.804Z,27.67
2019-06-20T09:38:23.823Z,27.26
2019-06-20T09:39:23.784Z,26.78
2019-06-20T09:40:23.777Z,26.40
2019-06-20T09:41:23.781Z,26.05
2019-06-20T09:42:23.772Z,25.75
2019-06-20T09:43:27.628Z,26.58
2019-06-20T09:44:23.817Z,27.74
2019-06-20T09:45:24.256Z,28.27
2019-06-20T09:46:23.712Z,28.81
2019-06-20T09:47:23.716Z,28.62
2019-06-20T09:48:23.701Z,27.51
2019-06-20T09:49:23.724Z,26.75
2019-06-20T09:50:23.707Z,26.58
2019-06-20T09:51:23.665Z,26.51
2019-06-20T09:52:23.661Z,26.41
2019-06-20T09:53:23.654Z,26.34
2019-06-20T09:54:23.636Z,26.23
2019-06-20T09:55:23.626Z,26.26
2019-06-20T09:56:23.657Z,25.85
2019-06-20T09:57:23.623Z,25.35
2019-06-20T09:58:23.602Z,25.35
2019-06-20T09:59:27.756Z,25.10
2019-06-20T10:00:23.586Z,25.07
2019-06-20T10:01:23.579Z,25.62
2019-06-20T10:02:23.592Z,25.91
2019-06-20T10:03:24.320Z,25.78
2019-06-20T10:04:23.609Z,25.88
2019-06-20T10:05:23.526Z,26.60
2019-06-20T10:06:23.515Z,26.88
2019-06-20T10:07:23.523Z,26.56
2019-06-20T10:08:23.886Z,26.45
2019-06-20T10:09:23.490Z,26.45
2019-06-20T10:10:23.487Z,26.51
2019-06-20T10:11:23.488Z,27.05
2019-06-20T10:12:23.473Z,28.08
2019-06-20T10:13:23.449Z,28.39
2019-06-20T10:14:25.823Z,28.25
2019-06-20T10:15:23.433Z,27.77
2019-06-20T10:16:23.432Z,27.73
2019-06-20T10:17:23.407Z,27.37
2019-06-20T10:18:23.404Z,27.22
2019-06-20T10:19:23.394Z,27.85
2019-06-20T10:20:23.408Z,27.51
2019-06-20T10:21:23.371Z,26.89
2019-06-20T10:22:24.348Z,26.63
2019-06-20T10:23:23.350Z,26.59
2019-06-20T10:24:23.352Z,26.31
2019-06-20T10:25:23.336Z,26.21
2019-06-20T10:26:23.363Z,26.16
2019-06-20T10:27:23.316Z,25.81
2019-06-20T10:28:23.328Z,25.38
2019-06-20T10:29:23.320Z,25.21
2019-06-20T10:30:23.282Z,24.99
2019-06-20T10:31:23.271Z,24.39
2019-06-20T10:32:23.282Z,24.05
2019-06-20T10:33:23.247Z,23.99
2019-06-20T10:34:23.258Z,23.98
2019-06-20T10:35:23.226Z,23.81
2019-06-20T10:36:23.224Z,23.83
2019-06-20T10:37:23.230Z,23.78
2019-06-20T10:38:23.236Z,23.77
2019-06-20T10:39:23.182Z,23.76
2019-06-20T10:40:23.182Z,23.69
2019-06-20T10:41:23.169Z,23.68
2019-06-20T10:42:23.163Z,23.48
2019-06-20T10:43:23.149Z,23.46
2019-06-20T10:44:23.170Z,23.34
2019-06-20T10:45:23.126Z,23.28
2019-06-20T10:46:23.107Z,23.23
2019-06-20T10:47:32.403Z,23.20
2019-06-20T10:48:23.090Z,23.17
2019-06-20T10:49:23.807Z,23.23
2019-06-20T10:50:23.094Z,23.23
2019-06-20T10:51:23.055Z,24.08
2019-06-20T10:52:23.040Z,24.45
2019-06-20T10:53:23.034Z,25.40
2019-06-20T10:54:23.026Z,26.62
2019-06-20T10:55:23.018Z,27.22
2019-06-20T10:56:23.043Z,26.85
2019-06-20T10:57:23.016Z,26.55
2019-06-20T10:58:23.005Z,26.18
2019-06-20T10:59:22.973Z,25.93
2019-06-20T11:00:30.670Z,25.90
2019-06-20T11:01:24.013Z,25.88
2019-06-20T11:02:22.960Z,25.73
2019-06-20T11:03:22.926Z,25.73
2019-06-20T11:04:22.917Z,25.66
2019-06-20T11:05:22.926Z,25.91
2019-06-20T11:06:22.908Z,25.85
2019-06-20T11:07:22.924Z,26.23
2019-06-20T11:08:22.882Z,27.29
2019-06-20T11:09:22.885Z,27.98
2019-06-20T11:10:22.875Z,28.45
2019-06-20T11:11:22.845Z,28.26
2019-06-20T11:12:22.836Z,27.92
2019-06-20T11:13:22.877Z,27.45
2019-06-20T11:14:22.833Z,26.78
2019-06-20T11:15:22.816Z,26.33
2019-06-20T11:16:22.804Z,25.90
2019-06-20T11:17:22.793Z,26.09
2019-06-20T11:18:22.769Z,26.03
2019-06-20T11:19:22.791Z,25.98
2019-06-20T11:20:22.783Z,25.85
2019-06-20T11:21:22.746Z,26.36
2019-06-20T11:22:22.734Z,27.45
2019-06-20T11:23:23.305Z,26.80
2019-06-20T11:24:22.723Z,26.55
2019-06-20T11:25:22.852Z,26.52
2019-06-20T11:26:22.695Z,26.06
2019-06-20T11:27:22.686Z,25.91
2019-06-20T11:28:22.691Z,25.88
2019-06-20T11:29:22.659Z,25.90
2019-06-20T11:30:22.654Z,26.13
2019-06-20T11:31:22.846Z,25.93
2019-06-20T11:32:22.635Z,25.95
2019-06-20T11:33:22.618Z,25.68
2019-06-20T11:34:22.638Z,25.59
2019-06-20T11:35:22.607Z,25.84
2019-06-20T11:36:23.318Z,26.10
2019-06-20T11:37:22.604Z,25.83
2019-06-20T11:38:22.572Z,25.77
2019-06-20T11:39:22.590Z,25.73
2019-06-20T11:40:22.556Z,26.16
2019-06-20T11:41:22.540Z,26.22
2019-06-20T11:42:22.540Z,26.21
2019-06-20T11:43:22.561Z,26.07
2019-06-20T11:44:22.527Z,26.09
2019-06-20T11:45:22.503Z,26.19
2019-06-20T11:46:23.345Z,26.23
2019-06-20T11:47:22.477Z,26.10
2019-06-20T11:48:22.503Z,26.25
2019-06-20T11:49:22.474Z,26.45
2019-06-20T11:50:22.441Z,26.41
2019-06-20T11:51:22.429Z,26.19
2019-06-20T11:52:22.425Z,25.78
2019-06-20T11:53:22.417Z,25.41
2019-06-20T11:54:22.401Z,25.29
2019-06-20T11:55:22.844Z,25.21
2019-06-20T11:56:22.379Z,24.85
2019-06-20T11:57:22.401Z,24.66
2019-06-20T11:58:23.555Z,24.73
2019-06-20T11:59:22.359Z,24.65
2019-06-20T12:00:22.361Z,24.58
2019-06-20T12:01:32.465Z,24.43
2019-06-20T12:02:22.345Z,24.26
2019-06-20T12:03:22.303Z,24.06
2019-06-20T12:04:22.294Z,23.93
2019-06-20T12:05:22.280Z,23.98
2019-06-20T12:06:22.284Z,23.74
2019-06-20T12:07:22.293Z,23.66
2019-06-20T12:08:22.259Z,23.43
2019-06-20T12:09:22.239Z,23.37
2019-06-20T12:10:22.256Z,23.40
2019-06-20T12:11:22.216Z,23.25
2019-06-20T12:12:22.206Z,23.21
2019-06-20T12:13:22.231Z,23.00
2019-06-20T12:14:22.884Z,23.00
2019-06-20T12:15:22.325Z,22.84
2019-06-20T12:16:22.161Z,22.69
2019-06-20T12:17:22.165Z,22.53
2019-06-20T12:18:22.141Z,22.47
2019-06-20T12:19:22.149Z,22.38
2019-06-20T12:20:22.120Z,22.26
2019-06-20T12:21:22.114Z,22.18
2019-06-20T12:22:22.128Z,22.20
2019-06-20T12:23:22.218Z,22.20
2019-06-20T12:24:22.091Z,22.10
2019-06-20T12:25:22.140Z,22.07
2019-06-20T12:26:22.065Z,21.88
2019-06-20T12:27:22.051Z,21.80
2019-06-20T12:28:22.035Z,21.58
2019-06-20T12:29:22.024Z,21.50
2019-06-20T12:30:22.007Z,21.33
2019-06-20T12:31:22.045Z,21.22
2019-06-20T12:32:21.991Z,21.37
2019-06-20T12:33:21.984Z,21.36
2019-06-20T12:34:22.005Z,21.25
2019-06-20T12:35:21.958Z,21.25
2019-06-20T12:36:21.943Z,21.20
2019-06-20T12:37:21.947Z,21.12
2019-06-20T12:38:21.934Z,21.30
2019-06-20T12:39:21.916Z,21.24
2019-06-20T12:40:21.905Z,21.11
2019-06-20T12:41:21.891Z,20.97
2019-06-20T12:42:21.887Z,20.92
2019-06-20T12:43:22.848Z,20.97
2019-06-20T12:44:21.892Z,21.00
2019-06-20T12:45:21.856Z,20.92
2019-06-20T12:46:21.848Z,20.92
2019-06-20T12:47:21.825Z,20.93
2019-06-20T12:48:21.814Z,20.97
2019-06-20T12:49:23.897Z,20.93
2019-06-20T12:50:21.805Z,21.14
2019-06-20T12:51:21.773Z,21.17
2019-06-20T12:52:22.328Z,21.21